sensor_id;sensor_type;location;lat;lon;timestamp;temperature;humidity
3156;DHT22;1588;50.892;7.082;2022-12-29T00:02:45;10.90;99.90
3156;DHT22;1588;50.892;7.082;2022-12-29T00:07:47;11.00;99.90
3156;DHT22;1588;50.892;7.082;2022-12-29T00:12:50;10.80;99.90
3156;DHT22;1588;50.892;7.082;2022-12-29T00:18:11;10.70;99.90
3156;DHT22;1588;50.892;7.082;2022-12-29T00:23:14;10.80;99.90
3156;DHT22;1588;50.892;7.082;2022-12-29T00:28:33;10.90;99.90
3156;DHT22;1588;50.892;7.082;2022-12-29T00:33:55;11.00;99.90
3156;DHT22;1588;50.892;7.082;2022-12-29T00:39:17;11.10;99.90
3156;DHT22;1588;50.892;7.082;2022-12-29T00:44:37;11.20;99.90
3156;DHT22;1588;50.892;7.082;2022-12-29T00:49:41;11.20;99.90
3156;DHT22;1588;50.892;7.082;2022-12-29T00:54:45;11.30;99.90
3156;DHT22;1588;50.892;7.082;2022-12-29T00:59:48;11.40;99.90
3156;DHT22;1588;50.892;7.082;2022-12-29T01:04:52;11.40;99.90
3156;DHT22;1588;50.892;7.082;2022-12-29T01:10:01;11.50;99.90
3156;DHT22;1588;50.892;7.082;2022-12-29T01:15:17;11.60;99.90
3156;DHT22;1588;50.892;7.082;2022-12-29T01:20:21;11.50;99.90
3156;DHT22;1588;50.892;7.082;2022-12-29T01:25:23;11.30;99.90
3156;DHT22;1588;50.892;7.082;2022-12-29T01:30:26;11.30;99.90
3156;DHT22;1588;50.892;7.082;2022-12-29T01:35:29;11.50;99.90
3156;DHT22;1588;50.892;7.082;2022-12-29T01:40:32;11.60;99.90
3156;DHT22;1588;50.892;7.082;2022-12-29T01:45:34;11.60;99.90
3156;DHT22;1588;50.892;7.082;2022-12-29T01:50:50;11.50;99.90
3156;DHT22;1588;50.892;7.082;2022-12-29T01:55:58;11.50;99.90
3156;DHT22;1588;50.892;7.082;2022-12-29T02:01:02;11.50;99.90
3156;DHT22;1588;50.892;7.082;2022-12-29T02:06:09;11.60;99.90
3156;DHT22;1588;50.892;7.082;2022-12-29T02:11:13;11.90;99.90
3156;DHT22;1588;50.892;7.082;2022-12-29T02:16:34;11.80;99.90
3156;DHT22;1588;50.892;7.082;2022-12-29T02:21:54;11.60;99.90
3156;DHT22;1588;50.892;7.082;2022-12-29T02:32:44;11.70;99.90
3156;DHT22;1588;50.892;7.082;2022-12-29T02:37:56;11.70;99.90
3156;DHT22;1588;50.892;7.082;2022-12-29T02:43:04;11.70;99.90
3156;DHT22;1588;50.892;7.082;2022-12-29T02:48:16;11.60;99.90
3156;DHT22;1588;50.892;7.082;2022-12-29T02:53:21;11.70;99.90
3156;DHT22;1588;50.892;7.082;2022-12-29T02:58:44;11.70;99.90
3156;DHT22;1588;50.892;7.082;2022-12-29T03:03:57;11.70;99.90
3156;DHT22;1588;50.892;7.082;2022-12-29T03:09:14;11.60;99.90
3156;DHT22;1588;50.892;7.082;2022-12-29T03:14:27;11.60;99.90
3156;DHT22;1588;50.892;7.082;2022-12-29T03:19:51;11.50;99.90
3156;DHT22;1588;50.892;7.082;2022-12-29T03:24:59;11.60;99.90
3156;DHT22;1588;50.892;7.082;2022-12-29T03:30:05;11.70;99.90
3156;DHT22;1588;50.892;7.082;2022-12-29T03:35:14;11.70;99.90
3156;DHT22;1588;50.892;7.082;2022-12-29T03:40:18;11.70;99.90
3156;DHT22;1588;50.892;7.082;2022-12-29T03:45:23;11.70;99.90
3156;DHT22;1588;50.892;7.082;2022-12-29T03:50:27;11.70;99.90
3156;DHT22;1588;50.892;7.082;2022-12-29T03:55:29;11.70;99.90
3156;DHT22;1588;50.892;7.082;2022-12-29T04:00:31;11.70;99.90
3156;DHT22;1588;50.892;7.082;2022-12-29T04:05:35;11.70;99.90
3156;DHT22;1588;50.892;7.082;2022-12-29T04:10:37;11.70;99.90
3156;DHT22;1588;50.892;7.082;2022-12-29T04:15:39;11.80;99.90
3156;DHT22;1588;50.892;7.082;2022-12-29T04:20:45;11.80;99.90
3156;DHT22;1588;50.892;7.082;2022-12-29T04:26:04;11.70;99.90
3156;DHT22;1588;50.892;7.082;2022-12-29T04:31:10;11.70;99.90
3156;DHT22;1588;50.892;7.082;2022-12-29T04:36:13;11.70;99.90
3156;DHT22;1588;50.892;7.082;2022-12-29T04:41:16;11.60;99.90
3156;DHT22;1588;50.892;7.082;2022-12-29T04:46:18;11.70;99.90
3156;DHT22;1588;50.892;7.082;2022-12-29T04:51:22;11.60;99.90
3156;DHT22;1588;50.892;7.082;2022-12-29T04:56:24;11.40;99.90
3156;DHT22;1588;50.892;7.082;2022-12-29T05:01:29;11.30;99.90
3156;DHT22;1588;50.892;7.082;2022-12-29T05:06:32;11.40;99.90
3156;DHT22;1588;50.892;7.082;2022-12-29T05:11:35;11.60;99.90
3156;DHT22;1588;50.892;7.082;2022-12-29T05:16:43;11.50;99.90
3156;DHT22;1588;50.892;7.082;2022-12-29T05:21:47;11.60;99.90
3156;DHT22;1588;50.892;7.082;2022-12-29T05:26:51;11.40;99.90
3156;DHT22;1588;50.892;7.082;2022-12-29T05:31:53;11.30;99.90
3156;DHT22;1588;50.892;7.082;2022-12-29T05:36:57;11.30;99.90
3156;DHT22;1588;50.892;7.082;2022-12-29T05:41:59;11.30;99.90
3156;DHT22;1588;50.892;7.082;2022-12-29T05:47:12;11.30;99.90
3156;DHT22;1588;50.892;7.082;2022-12-29T05:52:16;11.40;99.90
3156;DHT22;1588;50.892;7.082;2022-12-29T05:57:22;11.40;99.90
3156;DHT22;1588;50.892;7.082;2022-12-29T06:02:28;11.50;99.90
3156;DHT22;1588;50.892;7.082;2022-12-29T06:07:32;11.50;99.90
3156;DHT22;1588;50.892;7.082;2022-12-29T06:12:34;11.40;99.90
3156;DHT22;1588;50.892;7.082;2022-12-29T06:17:36;11.50;99.90
3156;DHT22;1588;50.892;7.082;2022-12-29T06:22:40;11.60;99.90
3156;DHT22;1588;50.892;7.082;2022-12-29T06:27:42;11.50;99.90
3156;DHT22;1588;50.892;7.082;2022-12-29T06:32:45;11.60;99.90
3156;DHT22;1588;50.892;7.082;2022-12-29T06:37:49;11.70;99.90
3156;DHT22;1588;50.892;7.082;2022-12-29T06:42:52;11.60;99.90
3156;DHT22;1588;50.892;7.082;2022-12-29T06:47:54;11.50;99.90
3156;DHT22;1588;50.892;7.082;2022-12-29T06:52:58;11.60;99.90
3156;DHT22;1588;50.892;7.082;2022-12-29T06:58:00;11.50;99.90
3156;DHT22;1588;50.892;7.082;2022-12-29T07:03:13;11.60;99.90
3156;DHT22;1588;50.892;7.082;2022-12-29T07:08:16;11.80;99.90
3156;DHT22;1588;50.892;7.082;2022-12-29T07:13:19;11.80;99.90
3156;DHT22;1588;50.892;7.082;2022-12-29T07:18:21;11.60;99.90
3156;DHT22;1588;50.892;7.082;2022-12-29T07:23:25;11.60;99.90
3156;DHT22;1588;50.892;7.082;2022-12-29T07:28:28;11.60;99.90
3156;DHT22;1588;50.892;7.082;2022-12-29T07:33:31;11.50;99.90
3156;DHT22;1588;50.892;7.082;2022-12-29T07:38:37;11.50;99.90
3156;DHT22;1588;50.892;7.082;2022-12-29T07:43:39;11.40;99.90
3156;DHT22;1588;50.892;7.082;2022-12-29T07:48:42;11.40;99.90
3156;DHT22;1588;50.892;7.082;2022-12-29T07:53:45;11.30;99.90
3156;DHT22;1588;50.892;7.082;2022-12-29T07:58:47;11.20;99.90
3156;DHT22;1588;50.892;7.082;2022-12-29T08:03:50;11.20;99.90
3156;DHT22;1588;50.892;7.082;2022-12-29T08:08:53;11.20;99.90
3156;DHT22;1588;50.892;7.082;2022-12-29T08:13:57;11.20;99.90
3156;DHT22;1588;50.892;7.082;2022-12-29T08:18:59;11.20;99.90
3156;DHT22;1588;50.892;7.082;2022-12-29T08:24:03;11.20;99.90
3156;DHT22;1588;50.892;7.082;2022-12-29T08:29:06;11.20;99.90
3156;DHT22;1588;50.892;7.082;2022-12-29T08:34:08;11.20;99.90
3156;DHT22;1588;50.892;7.082;2022-12-29T08:39:11;11.10;99.90
3156;DHT22;1588;50.892;7.082;2022-12-29T08:44:14;11.10;99.90
3156;DHT22;1588;50.892;7.082;2022-12-29T08:49:17;11.00;99.90
3156;DHT22;1588;50.892;7.082;2022-12-29T08:54:20;11.00;99.90
3156;DHT22;1588;50.892;7.082;2022-12-29T08:59:23;11.10;99.90
3156;DHT22;1588;50.892;7.082;2022-12-29T09:04:25;11.00;99.90
3156;DHT22;1588;50.892;7.082;2022-12-29T09:09:33;11.00;99.90
3156;DHT22;1588;50.892;7.082;2022-12-29T09:14:38;10.90;99.90
3156;DHT22;1588;50.892;7.082;2022-12-29T09:19:40;10.90;99.90
3156;DHT22;1588;50.892;7.082;2022-12-29T09:24:53;11.00;99.90
3156;DHT22;1588;50.892;7.082;2022-12-29T09:29:56;11.10;99.90
3156;DHT22;1588;50.892;7.082;2022-12-29T09:34:59;11.20;99.90
3156;DHT22;1588;50.892;7.082;2022-12-29T09:40:03;11.40;99.90
3156;DHT22;1588;50.892;7.082;2022-12-29T09:45:12;11.50;99.90
3156;DHT22;1588;50.892;7.082;2022-12-29T09:50:21;11.70;99.90
3156;DHT22;1588;50.892;7.082;2022-12-29T09:55:33;11.80;99.90
3156;DHT22;1588;50.892;7.082;2022-12-29T10:00:41;11.80;99.90
3156;DHT22;1588;50.892;7.082;2022-12-29T10:05:59;12.00;99.90
3156;DHT22;1588;50.892;7.082;2022-12-29T10:11:15;12.00;99.90
3156;DHT22;1588;50.892;7.082;2022-12-29T10:16:28;12.00;99.90
3156;DHT22;1588;50.892;7.082;2022-12-29T10:21:47;12.10;99.90
3156;DHT22;1588;50.892;7.082;2022-12-29T10:26:56;12.00;99.90
3156;DHT22;1588;50.892;7.082;2022-12-29T10:32:01;12.10;99.90
3156;DHT22;1588;50.892;7.082;2022-12-29T10:37:11;12.40;99.90
3156;DHT22;1588;50.892;7.082;2022-12-29T10:42:26;12.50;99.90
3156;DHT22;1588;50.892;7.082;2022-12-29T10:47:33;12.40;99.90
3156;DHT22;1588;50.892;7.082;2022-12-29T10:52:38;12.30;99.90
3156;DHT22;1588;50.892;7.082;2022-12-29T10:57:44;12.20;99.90
3156;DHT22;1588;50.892;7.082;2022-12-29T11:08:27;12.30;99.90
3156;DHT22;1588;50.892;7.082;2022-12-29T11:13:32;12.30;99.90
3156;DHT22;1588;50.892;7.082;2022-12-29T11:18:36;12.50;99.90
3156;DHT22;1588;50.892;7.082;2022-12-29T11:23:40;12.60;99.90
3156;DHT22;1588;50.892;7.082;2022-12-29T11:28:45;12.60;99.90
3156;DHT22;1588;50.892;7.082;2022-12-29T11:33:48;12.60;99.90
3156;DHT22;1588;50.892;7.082;2022-12-29T11:38:52;12.70;99.90
3156;DHT22;1588;50.892;7.082;2022-12-29T11:43:58;12.90;99.90
3156;DHT22;1588;50.892;7.082;2022-12-29T11:49:01;12.80;99.90
3156;DHT22;1588;50.892;7.082;2022-12-29T11:54:05;12.60;99.90
3156;DHT22;1588;50.892;7.082;2022-12-29T11:59:36;12.50;99.90
3156;DHT22;1588;50.892;7.082;2022-12-29T12:04:39;12.30;99.90
3156;DHT22;1588;50.892;7.082;2022-12-29T12:09:45;12.20;99.90
3156;DHT22;1588;50.892;7.082;2022-12-29T12:14:54;12.20;99.90
3156;DHT22;1588;50.892;7.082;2022-12-29T12:20:00;12.20;99.90
3156;DHT22;1588;50.892;7.082;2022-12-29T12:25:10;12.30;99.90
3156;DHT22;1588;50.892;7.082;2022-12-29T12:30:18;12.20;99.90
3156;DHT22;1588;50.892;7.082;2022-12-29T12:35:26;12.10;99.90
3156;DHT22;1588;50.892;7.082;2022-12-29T12:40:45;12.00;99.90
3156;DHT22;1588;50.892;7.082;2022-12-29T12:45:59;12.10;99.90
3156;DHT22;1588;50.892;7.082;2022-12-29T12:51:11;12.10;99.90
3156;DHT22;1588;50.892;7.082;2022-12-29T12:56:47;12.10;99.90
3156;DHT22;1588;50.892;7.082;2022-12-29T13:02:01;12.00;99.90
3156;DHT22;1588;50.892;7.082;2022-12-29T13:07:13;12.10;99.90
3156;DHT22;1588;50.892;7.082;2022-12-29T13:12:28;12.10;99.90
3156;DHT22;1588;50.892;7.082;2022-12-29T13:17:37;12.10;99.90
3156;DHT22;1588;50.892;7.082;2022-12-29T13:22:45;12.10;99.90
3156;DHT22;1588;50.892;7.082;2022-12-29T13:27:53;12.00;99.90
3156;DHT22;1588;50.892;7.082;2022-12-29T13:33:05;11.90;99.90
3156;DHT22;1588;50.892;7.082;2022-12-29T13:38:12;11.80;99.90
3156;DHT22;1588;50.892;7.082;2022-12-29T13:43:17;11.80;99.90
3156;DHT22;1588;50.892;7.082;2022-12-29T13:48:26;11.70;99.90
3156;DHT22;1588;50.892;7.082;2022-12-29T13:53:46;11.80;99.90
3156;DHT22;1588;50.892;7.082;2022-12-29T13:58:56;11.80;99.90
3156;DHT22;1588;50.892;7.082;2022-12-29T14:04:16;11.70;99.90
3156;DHT22;1588;50.892;7.082;2022-12-29T14:09:46;11.70;99.90
3156;DHT22;1588;50.892;7.082;2022-12-29T14:14:49;11.60;99.90
3156;DHT22;1588;50.892;7.082;2022-12-29T14:19:54;11.50;99.90
3156;DHT22;1588;50.892;7.082;2022-12-29T14:24:56;11.40;99.90
3156;DHT22;1588;50.892;7.082;2022-12-29T14:29:58;11.40;99.90
3156;DHT22;1588;50.892;7.082;2022-12-29T14:35:38;11.00;99.90
3156;DHT22;1588;50.892;7.082;2022-12-29T14:40:40;10.10;99.90
3156;DHT22;1588;50.892;7.082;2022-12-29T14:45:51;9.90;99.90
3156;DHT22;1588;50.892;7.082;2022-12-29T14:50:56;10.00;99.90
3156;DHT22;1588;50.892;7.082;2022-12-29T14:55:59;10.00;99.90
3156;DHT22;1588;50.892;7.082;2022-12-29T15:01:02;10.10;99.90
3156;DHT22;1588;50.892;7.082;2022-12-29T15:06:07;10.20;99.90
3156;DHT22;1588;50.892;7.082;2022-12-29T15:11:15;10.30;99.90
3156;DHT22;1588;50.892;7.082;2022-12-29T15:16:24;10.40;99.90
3156;DHT22;1588;50.892;7.082;2022-12-29T15:21:30;10.40;99.90
3156;DHT22;1588;50.892;7.082;2022-12-29T15:26:37;10.30;99.90
3156;DHT22;1588;50.892;7.082;2022-12-29T15:31:46;10.20;99.90
3156;DHT22;1588;50.892;7.082;2022-12-29T15:36:51;10.00;99.90
3156;DHT22;1588;50.892;7.082;2022-12-29T15:41:56;9.70;99.90
3156;DHT22;1588;50.892;7.082;2022-12-29T15:47:02;9.50;99.90
3156;DHT22;1588;50.892;7.082;2022-12-29T15:52:08;9.40;99.90
3156;DHT22;1588;50.892;7.082;2022-12-29T15:57:20;9.40;99.90
3156;DHT22;1588;50.892;7.082;2022-12-29T16:02:26;9.40;99.90
3156;DHT22;1588;50.892;7.082;2022-12-29T16:07:32;9.30;99.90
3156;DHT22;1588;50.892;7.082;2022-12-29T16:12:36;9.50;99.90
3156;DHT22;1588;50.892;7.082;2022-12-29T16:17:46;9.50;99.90
3156;DHT22;1588;50.892;7.082;2022-12-29T16:22:54;9.60;99.90
3156;DHT22;1588;50.892;7.082;2022-12-29T16:27:58;9.50;99.90
3156;DHT22;1588;50.892;7.082;2022-12-29T16:33:03;9.30;99.90
3156;DHT22;1588;50.892;7.082;2022-12-29T16:38:13;9.10;99.90
3156;DHT22;1588;50.892;7.082;2022-12-29T16:43:23;9.00;99.90
3156;DHT22;1588;50.892;7.082;2022-12-29T16:48:27;8.80;99.90
3156;DHT22;1588;50.892;7.082;2022-12-29T16:53:42;8.70;99.90
3156;DHT22;1588;50.892;7.082;2022-12-29T16:59:04;8.60;99.90
3156;DHT22;1588;50.892;7.082;2022-12-29T17:04:09;8.60;99.90
3156;DHT22;1588;50.892;7.082;2022-12-29T17:09:19;8.50;99.90
3156;DHT22;1588;50.892;7.082;2022-12-29T17:14:38;8.50;99.90
3156;DHT22;1588;50.892;7.082;2022-12-29T17:19:45;8.30;99.90
3156;DHT22;1588;50.892;7.082;2022-12-29T17:24:50;8.30;99.90
3156;DHT22;1588;50.892;7.082;2022-12-29T17:29:54;8.20;99.90
3156;DHT22;1588;50.892;7.082;2022-12-29T17:34:58;8.10;99.90
3156;DHT22;1588;50.892;7.082;2022-12-29T17:40:03;8.20;99.90
3156;DHT22;1588;50.892;7.082;2022-12-29T17:45:11;8.10;99.90
3156;DHT22;1588;50.892;7.082;2022-12-29T17:50:15;8.30;99.90
3156;DHT22;1588;50.892;7.082;2022-12-29T17:55:21;8.20;99.90
3156;DHT22;1588;50.892;7.082;2022-12-29T18:00:26;8.10;99.90
3156;DHT22;1588;50.892;7.082;2022-12-29T18:05:29;8.00;99.90
3156;DHT22;1588;50.892;7.082;2022-12-29T18:10:35;7.90;99.90
3156;DHT22;1588;50.892;7.082;2022-12-29T18:15:37;7.90;99.90
3156;DHT22;1588;50.892;7.082;2022-12-29T18:20:41;7.80;99.90
3156;DHT22;1588;50.892;7.082;2022-12-29T18:25:49;7.80;99.90
3156;DHT22;1588;50.892;7.082;2022-12-29T18:30:54;7.90;99.90
3156;DHT22;1588;50.892;7.082;2022-12-29T18:35:58;8.00;99.90
3156;DHT22;1588;50.892;7.082;2022-12-29T18:41:02;8.10;99.90
3156;DHT22;1588;50.892;7.082;2022-12-29T18:46:04;8.20;99.90
3156;DHT22;1588;50.892;7.082;2022-12-29T18:51:15;8.20;99.90
3156;DHT22;1588;50.892;7.082;2022-12-29T18:56:19;8.30;99.90
3156;DHT22;1588;50.892;7.082;2022-12-29T19:01:25;8.30;99.90
3156;DHT22;1588;50.892;7.082;2022-12-29T19:06:28;8.40;99.90
3156;DHT22;1588;50.892;7.082;2022-12-29T19:11:31;8.20;99.90
3156;DHT22;1588;50.892;7.082;2022-12-29T19:16:34;8.20;99.90
3156;DHT22;1588;50.892;7.082;2022-12-29T19:21:37;8.20;99.90
3156;DHT22;1588;50.892;7.082;2022-12-29T19:26:40;8.50;99.90
3156;DHT22;1588;50.892;7.082;2022-12-29T19:31:43;8.50;99.90
3156;DHT22;1588;50.892;7.082;2022-12-29T19:36:45;8.50;99.90
3156;DHT22;1588;50.892;7.082;2022-12-29T19:41:49;8.50;99.90
3156;DHT22;1588;50.892;7.082;2022-12-29T19:46:51;8.50;99.90
3156;DHT22;1588;50.892;7.082;2022-12-29T19:51:53;8.40;99.90
3156;DHT22;1588;50.892;7.082;2022-12-29T19:56:57;8.50;99.90
3156;DHT22;1588;50.892;7.082;2022-12-29T20:02:00;8.50;99.90
3156;DHT22;1588;50.892;7.082;2022-12-29T20:07:02;8.40;99.90
3156;DHT22;1588;50.892;7.082;2022-12-29T20:12:07;8.40;99.90
3156;DHT22;1588;50.892;7.082;2022-12-29T20:17:12;8.40;99.90
3156;DHT22;1588;50.892;7.082;2022-12-29T20:22:14;8.50;99.90
3156;DHT22;1588;50.892;7.082;2022-12-29T20:27:18;8.30;99.90
3156;DHT22;1588;50.892;7.082;2022-12-29T20:32:21;8.10;99.90
3156;DHT22;1588;50.892;7.082;2022-12-29T20:37:25;8.00;99.90
3156;DHT22;1588;50.892;7.082;2022-12-29T20:42:29;7.90;99.90
3156;DHT22;1588;50.892;7.082;2022-12-29T20:47:31;7.80;99.90
3156;DHT22;1588;50.892;7.082;2022-12-29T20:52:34;7.70;99.90
3156;DHT22;1588;50.892;7.082;2022-12-29T20:57:37;7.60;99.90
3156;DHT22;1588;50.892;7.082;2022-12-29T21:02:42;7.60;99.90
3156;DHT22;1588;50.892;7.082;2022-12-29T21:07:44;7.40;99.90
3156;DHT22;1588;50.892;7.082;2022-12-29T21:12:48;7.20;99.90
3156;DHT22;1588;50.892;7.082;2022-12-29T21:17:51;7.20;99.90
3156;DHT22;1588;50.892;7.082;2022-12-29T21:22:53;7.20;99.90
3156;DHT22;1588;50.892;7.082;2022-12-29T21:27:57;7.10;99.90
3156;DHT22;1588;50.892;7.082;2022-12-29T21:32:59;7.20;99.90
3156;DHT22;1588;50.892;7.082;2022-12-29T21:38:02;7.20;99.90
3156;DHT22;1588;50.892;7.082;2022-12-29T21:43:06;7.10;99.90
3156;DHT22;1588;50.892;7.082;2022-12-29T21:48:08;7.00;99.90
3156;DHT22;1588;50.892;7.082;2022-12-29T21:53:24;7.10;99.90
3156;DHT22;1588;50.892;7.082;2022-12-29T21:58:40;7.00;99.90
3156;DHT22;1588;50.892;7.082;2022-12-29T22:04:00;7.00;99.90
3156;DHT22;1588;50.892;7.082;2022-12-29T22:09:20;7.00;99.90
3156;DHT22;1588;50.892;7.082;2022-12-29T22:14:41;7.20;99.90
3156;DHT22;1588;50.892;7.082;2022-12-29T22:19:43;7.10;99.90
3156;DHT22;1588;50.892;7.082;2022-12-29T22:24:46;7.00;99.90
3156;DHT22;1588;50.892;7.082;2022-12-29T22:29:49;7.10;99.90
3156;DHT22;1588;50.892;7.082;2022-12-29T22:34:52;7.20;99.90
3156;DHT22;1588;50.892;7.082;2022-12-29T22:39:54;7.20;99.90
3156;DHT22;1588;50.892;7.082;2022-12-29T22:44:58;7.10;99.90
3156;DHT22;1588;50.892;7.082;2022-12-29T22:50:00;7.10;99.90
3156;DHT22;1588;50.892;7.082;2022-12-29T22:55:07;7.00;99.90
3156;DHT22;1588;50.892;7.082;2022-12-29T23:00:11;7.10;99.90
3156;DHT22;1588;50.892;7.082;2022-12-29T23:05:13;7.00;99.90
3156;DHT22;1588;50.892;7.082;2022-12-29T23:10:16;7.10;99.90
3156;DHT22;1588;50.892;7.082;2022-12-29T23:15:20;6.90;99.90
3156;DHT22;1588;50.892;7.082;2022-12-29T23:20:22;6.70;99.90
3156;DHT22;1588;50.892;7.082;2022-12-29T23:25:24;6.60;99.90
3156;DHT22;1588;50.892;7.082;2022-12-29T23:30:28;6.50;99.90
3156;DHT22;1588;50.892;7.082;2022-12-29T23:35:30;6.40;99.90
3156;DHT22;1588;50.892;7.082;2022-12-29T23:40:32;6.10;99.90
3156;DHT22;1588;50.892;7.082;2022-12-29T23:45:39;5.90;99.90
3156;DHT22;1588;50.892;7.082;2022-12-29T23:50:41;5.60;99.90
3156;DHT22;1588;50.892;7.082;2022-12-29T23:55:51;5.40;99.90
